createdAt,value
2023-04-27T00:00:57.300Z,8.27
2023-04-27T00:03:06.717Z,9.52
2023-04-27T00:05:15.283Z,9.60
2023-04-27T00:07:24.876Z,8.80
2023-04-27T00:09:35.452Z,9.32
2023-04-27T00:11:43.447Z,8.70
2023-04-27T00:13:51.358Z,8.07
2023-04-27T00:16:01.189Z,8.30
2023-04-27T00:18:09.146Z,8.93
2023-04-27T00:20:17.052Z,8.93
2023-04-27T00:22:25.027Z,8.75
2023-04-27T00:24:36.275Z,8.30
2023-04-27T00:26:44.512Z,8.48
2023-04-27T00:28:53.098Z,8.35
2023-04-27T00:31:03.699Z,9.07
2023-04-27T00:33:12.207Z,9.23
2023-04-27T00:35:22.119Z,8.40
2023-04-27T00:37:30.545Z,9.07
2023-04-27T00:39:41.220Z,9.95
2023-04-27T00:41:49.088Z,8.75
2023-04-27T00:43:57.030Z,9.32
2023-04-27T00:46:05.492Z,8.80
2023-04-27T00:48:13.802Z,9.38
2023-04-27T00:50:30.528Z,8.07
2023-04-27T00:52:39.541Z,10.98
2023-04-27T00:54:53.431Z,9.05
2023-04-27T00:57:04.245Z,10.40
2023-04-27T00:59:12.385Z,9.98
2023-04-27T01:01:20.920Z,9.65
2023-04-27T01:03:29.679Z,9.63
2023-04-27T01:05:40.346Z,10.55
2023-04-27T01:07:49.604Z,9.60
2023-04-27T01:10:00.532Z,9.13
2023-04-27T01:12:09.334Z,9.38
2023-04-27T01:14:17.789Z,8.68
2023-04-27T01:16:25.869Z,9.23
2023-04-27T01:18:33.910Z,8.70
2023-04-27T01:20:42.556Z,8.07
2023-04-27T01:22:50.938Z,8.32
2023-04-27T01:25:01.761Z,8.77
2023-04-27T01:27:12.899Z,8.25
2023-04-27T01:29:21.572Z,8.20
2023-04-27T01:31:29.475Z,8.45
2023-04-27T01:33:37.385Z,9.30
2023-04-27T01:35:45.650Z,9.63
2023-04-27T01:37:54.254Z,9.10
2023-04-27T01:40:06.043Z,8.85
2023-04-27T01:42:13.976Z,8.88
2023-04-27T01:44:23.175Z,9.07
2023-04-27T01:46:31.211Z,9.65
2023-04-27T01:48:39.306Z,10.00
2023-04-27T01:50:47.355Z,9.57
2023-04-27T01:52:55.428Z,8.70
2023-04-27T01:55:06.541Z,9.05
2023-04-27T01:57:14.763Z,9.43
2023-04-27T01:59:22.954Z,8.15
2023-04-27T02:01:31.607Z,9.00
2023-04-27T02:03:39.708Z,7.55
2023-04-27T02:05:48.283Z,8.50
2023-04-27T02:07:56.551Z,9.13
2023-04-27T02:10:07.737Z,9.52
2023-04-27T02:12:15.865Z,9.35
2023-04-27T02:14:23.750Z,10.25
2023-04-27T02:16:31.731Z,9.68
2023-04-27T02:18:39.708Z,9.05
2023-04-27T02:20:50.753Z,8.90
2023-04-27T02:22:58.677Z,9.38
2023-04-27T02:25:11.779Z,9.82
2023-04-27T02:27:20.125Z,9.85
2023-04-27T02:29:33.209Z,9.95
2023-04-27T02:31:41.521Z,9.65
2023-04-27T02:33:49.738Z,9.50
2023-04-27T02:35:58.180Z,9.45
2023-04-27T02:38:06.898Z,9.27
2023-04-27T02:40:21.558Z,10.57
2023-04-27T02:42:29.637Z,9.80
2023-04-27T02:44:37.507Z,10.25
2023-04-27T02:46:45.388Z,10.35
2023-04-27T02:48:55.483Z,10.95
2023-04-27T02:51:07.313Z,11.73
2023-04-27T02:53:15.941Z,12.15
2023-04-27T02:55:26.279Z,11.65
2023-04-27T02:57:34.200Z,11.10
2023-04-27T02:59:43.519Z,11.88
2023-04-27T03:01:54.797Z,12.02
2023-04-27T03:04:02.795Z,11.63
2023-04-27T03:06:11.046Z,11.02
2023-04-27T03:08:19.367Z,10.38
2023-04-27T03:10:30.241Z,11.05
2023-04-27T03:12:38.679Z,9.70
2023-04-27T03:14:46.569Z,11.60
2023-04-27T03:16:56.384Z,11.40
2023-04-27T03:19:04.561Z,11.20
2023-04-27T03:21:14.447Z,11.43
2023-04-27T03:23:22.677Z,12.13
2023-04-27T03:25:36.155Z,12.05
2023-04-27T03:27:44.022Z,10.25
2023-04-27T03:29:54.756Z,10.63
2023-04-27T03:32:02.802Z,10.50
2023-04-27T03:34:10.792Z,10.85
2023-04-27T03:36:20.464Z,10.23
2023-04-27T03:38:29.267Z,11.32
2023-04-27T03:40:40.079Z,10.60
2023-04-27T03:42:48.132Z,11.63
2023-04-27T03:44:56.730Z,9.80
2023-04-27T03:47:09.337Z,10.07
2023-04-27T03:49:19.494Z,10.65
2023-04-27T03:51:27.495Z,11.45
2023-04-27T03:53:35.591Z,10.45
2023-04-27T03:55:47.979Z,10.45
2023-04-27T03:57:56.927Z,9.95
2023-04-27T04:00:05.379Z,9.98
2023-04-27T04:02:22.351Z,10.25
2023-04-27T04:04:30.614Z,10.25
2023-04-27T04:06:38.669Z,11.27
2023-04-27T04:08:47.198Z,10.63
2023-04-27T04:10:57.832Z,10.93
2023-04-27T04:13:05.807Z,10.18
2023-04-27T04:15:14.279Z,10.95
2023-04-27T04:17:22.346Z,11.60
2023-04-27T04:19:30.291Z,10.80
2023-04-27T04:21:38.493Z,11.32
2023-04-27T04:23:48.880Z,10.60
2023-04-27T04:26:00.274Z,11.45
2023-04-27T04:28:12.926Z,10.95
2023-04-27T04:30:21.104Z,10.55
2023-04-27T04:32:31.452Z,10.90
2023-04-27T04:34:39.579Z,10.23
2023-04-27T04:36:47.663Z,11.55
2023-04-27T04:38:57.391Z,10.65
2023-04-27T04:41:10.427Z,11.50
2023-04-27T04:43:19.058Z,10.98
2023-04-27T04:45:29.053Z,10.70
2023-04-27T04:47:39.850Z,11.23
2023-04-27T04:49:47.923Z,10.80
2023-04-27T04:51:55.961Z,11.95
2023-04-27T04:54:03.949Z,10.40
2023-04-27T04:56:17.145Z,11.20
2023-04-27T04:58:25.100Z,11.27
2023-04-27T05:00:33.349Z,10.35
2023-04-27T05:02:43.889Z,10.68
2023-04-27T05:04:52.453Z,10.40
2023-04-27T05:07:00.687Z,10.48
2023-04-27T05:09:09.244Z,10.98
2023-04-27T05:11:19.766Z,12.23
2023-04-27T05:13:30.047Z,11.35
2023-04-27T05:15:43.172Z,11.68
2023-04-27T05:17:51.189Z,11.93
2023-04-27T05:19:59.299Z,11.40
2023-04-27T05:22:07.185Z,11.02
2023-04-27T05:24:15.888Z,10.95
2023-04-27T05:26:26.457Z,11.65
2023-04-27T05:28:34.745Z,11.20
2023-04-27T05:30:42.908Z,11.13
2023-04-27T05:32:51.047Z,11.45
2023-04-27T05:34:59.249Z,10.27
2023-04-27T05:37:07.494Z,10.85
2023-04-27T05:39:16.057Z,10.00
2023-04-27T05:41:26.859Z,9.85
2023-04-27T05:43:38.915Z,11.43
2023-04-27T05:45:47.035Z,11.10
2023-04-27T05:47:56.208Z,10.73
2023-04-27T05:50:04.139Z,10.80
2023-04-27T05:52:12.147Z,10.57
2023-04-27T05:54:19.998Z,10.90
2023-04-27T05:56:30.727Z,11.30
2023-04-27T05:58:38.927Z,10.93
2023-04-27T06:00:47.346Z,11.05
2023-04-27T06:02:55.447Z,10.60
2023-04-27T06:05:04.799Z,11.38
2023-04-27T06:07:13.568Z,10.50
2023-04-27T06:09:21.926Z,9.75
2023-04-27T06:11:32.494Z,9.20
2023-04-27T06:13:40.429Z,9.95
2023-04-27T06:15:48.450Z,8.90
2023-04-27T06:17:56.564Z,9.20
2023-04-27T06:20:07.102Z,9.10
2023-04-27T06:22:15.043Z,9.55
2023-04-27T06:24:23.467Z,9.30
2023-04-27T06:26:34.549Z,8.93
2023-04-27T06:28:42.538Z,9.13
2023-04-27T06:30:51.182Z,9.75
2023-04-27T06:32:59.170Z,8.70
2023-04-27T06:35:07.951Z,9.50
2023-04-27T06:37:17.298Z,8.75
2023-04-27T06:39:25.272Z,9.45
2023-04-27T06:41:36.037Z,9.60
2023-04-27T06:43:44.072Z,9.05
2023-04-27T06:45:52.061Z,8.98
2023-04-27T06:48:00.040Z,9.90
2023-04-27T06:50:08.836Z,7.75
2023-04-27T06:52:17.099Z,8.90
2023-04-27T06:54:25.302Z,8.70
2023-04-27T06:56:36.127Z,7.63
2023-04-27T06:58:44.212Z,8.40
2023-04-27T07:00:52.157Z,7.80
2023-04-27T07:03:00.117Z,8.02
2023-04-27T07:05:09.046Z,8.63
2023-04-27T07:07:16.974Z,8.23
2023-04-27T07:09:27.815Z,8.38
2023-04-27T07:11:38.814Z,7.93
2023-04-27T07:13:50.227Z,8.20
2023-04-27T07:16:00.727Z,8.82
2023-04-27T07:18:17.464Z,8.38
2023-04-27T07:20:30.827Z,7.88
2023-04-27T07:22:39.415Z,8.13
2023-04-27T07:24:47.237Z,7.72
2023-04-27T07:26:58.306Z,10.15
2023-04-27T07:29:18.840Z,11.60
2023-04-27T07:31:32.013Z,9.70
2023-04-27T07:33:39.874Z,9.43
2023-04-27T07:35:47.816Z,9.40
2023-04-27T07:37:56.872Z,8.13
2023-04-27T07:40:11.231Z,9.18
2023-04-27T07:42:22.636Z,8.70
2023-04-27T07:44:30.774Z,8.70
2023-04-27T07:46:38.884Z,7.43
2023-04-27T07:48:50.469Z,8.27
2023-04-27T07:50:58.570Z,7.73
2023-04-27T07:53:06.584Z,7.23
2023-04-27T07:55:15.416Z,7.60
2023-04-27T07:57:26.090Z,6.65
2023-04-27T07:59:33.983Z,6.25
2023-04-27T08:01:42.304Z,6.75
2023-04-27T08:03:50.429Z,6.13
2023-04-27T08:05:58.983Z,6.63
2023-04-27T08:08:07.901Z,7.55
2023-04-27T08:10:16.597Z,6.30
2023-04-27T08:12:27.125Z,6.50
2023-04-27T08:14:37.357Z,6.70
2023-04-27T08:16:46.079Z,6.70
2023-04-27T08:18:54.099Z,6.10
2023-04-27T08:21:01.977Z,6.43
2023-04-27T08:23:09.944Z,7.00
2023-04-27T08:25:17.923Z,6.15
2023-04-27T08:27:28.739Z,6.65
2023-04-27T08:29:37.180Z,6.40
2023-04-27T08:31:45.188Z,6.65
2023-04-27T08:33:53.500Z,7.20
2023-04-27T08:36:02.493Z,6.75
2023-04-27T08:38:10.868Z,6.65
2023-04-27T08:40:20.060Z,6.25
2023-04-27T08:42:30.980Z,6.63
2023-04-27T08:44:41.893Z,6.50
2023-04-27T08:46:51.194Z,6.15
2023-04-27T08:48:59.691Z,7.32
2023-04-27T08:51:13.826Z,6.93
2023-04-27T08:53:22.429Z,6.80
2023-04-27T08:55:31.653Z,6.63
2023-04-27T08:57:42.257Z,6.45
2023-04-27T09:00:01.254Z,6.60
2023-04-27T09:02:09.720Z,6.20
2023-04-27T09:04:18.838Z,6.13
2023-04-27T09:06:33.307Z,5.88
2023-04-27T09:08:45.836Z,6.50
2023-04-27T09:10:55.016Z,5.80
2023-04-27T09:13:05.675Z,5.65
2023-04-27T09:15:14.196Z,6.15
2023-04-27T09:17:28.440Z,4.78
2023-04-27T09:19:36.373Z,5.40
2023-04-27T09:21:47.730Z,4.35
2023-04-27T09:23:56.186Z,5.00
2023-04-27T09:26:08.288Z,4.07
2023-04-27T09:28:19.162Z,4.20
2023-04-27T09:30:27.285Z,4.00
2023-04-27T09:32:35.467Z,4.47
2023-04-27T09:34:43.895Z,4.90
2023-04-27T09:36:52.478Z,4.78
2023-04-27T09:39:02.216Z,4.20
2023-04-27T09:41:11.334Z,5.30
2023-04-27T09:43:22.198Z,4.43
2023-04-27T09:45:30.928Z,4.43
2023-04-27T09:47:39.837Z,5.00
2023-04-27T09:49:47.840Z,5.10
2023-04-27T09:51:57.116Z,5.60
2023-04-27T09:54:06.975Z,4.70
2023-04-27T09:56:29.069Z,5.10
2023-04-27T09:59:02.720Z,5.50
2023-04-27T10:01:22.069Z,5.00
2023-04-27T10:03:36.258Z,5.17
2023-04-27T10:06:10.900Z,5.13
2023-04-27T10:08:19.193Z,5.73
2023-04-27T10:10:27.389Z,4.90
2023-04-27T10:12:38.633Z,5.53
2023-04-27T10:14:57.273Z,5.03
2023-04-27T10:17:14.104Z,5.90
2023-04-27T10:19:22.835Z,5.60
2023-04-27T10:21:30.887Z,5.40
2023-04-27T10:23:50.758Z,5.60
2023-04-27T10:25:58.922Z,6.23
2023-04-27T10:28:08.505Z,5.60
2023-04-27T10:30:22.195Z,5.20
2023-04-27T10:32:33.511Z,4.73
2023-04-27T10:34:42.787Z,5.43
2023-04-27T10:36:50.805Z,5.03
2023-04-27T10:38:59.914Z,4.83
2023-04-27T10:41:08.128Z,5.60
2023-04-27T10:43:17.741Z,5.23
2023-04-27T10:45:37.355Z,5.87
2023-04-27T10:47:47.277Z,5.50
2023-04-27T10:49:57.903Z,4.83
2023-04-27T10:52:06.512Z,5.00
2023-04-27T10:54:15.147Z,5.93
2023-04-27T10:56:25.080Z,5.90
2023-04-27T10:58:45.250Z,6.20
2023-04-27T11:00:59.150Z,6.00
2023-04-27T11:03:21.271Z,5.60
2023-04-27T11:05:33.953Z,6.28
2023-04-27T11:07:45.696Z,5.80
2023-04-27T11:09:53.709Z,5.60
2023-04-27T11:12:02.050Z,5.95
2023-04-27T11:14:11.784Z,6.65
2023-04-27T11:16:22.417Z,5.47
2023-04-27T11:18:36.496Z,6.28
2023-04-27T11:20:44.574Z,6.80
2023-04-27T11:22:52.889Z,5.82
2023-04-27T11:25:00.905Z,5.95
2023-04-27T11:27:08.893Z,6.80
2023-04-27T11:29:17.215Z,5.45
2023-04-27T11:31:28.633Z,6.82
2023-04-27T11:33:37.022Z,5.82
2023-04-27T11:35:45.453Z,6.68
2023-04-27T11:38:02.273Z,7.60
2023-04-27T11:40:12.365Z,6.20
2023-04-27T11:42:22.376Z,5.78
2023-04-27T11:44:30.451Z,6.95
2023-04-27T11:46:42.643Z,6.15
2023-04-27T11:48:50.923Z,5.97
2023-04-27T11:51:02.125Z,6.82
2023-04-27T11:53:10.305Z,6.35
2023-04-27T11:55:18.848Z,6.65
2023-04-27T11:57:29.173Z,6.18
2023-04-27T11:59:37.159Z,6.55
2023-04-27T12:01:47.979Z,5.88
2023-04-27T12:03:56.944Z,7.45
2023-04-27T12:06:21.363Z,6.88
2023-04-27T12:08:33.849Z,7.35
2023-04-27T12:10:42.060Z,6.80
2023-04-27T12:12:49.967Z,7.00
2023-04-27T12:14:58.912Z,6.07
2023-04-27T12:17:09.549Z,7.07
2023-04-27T12:19:17.679Z,7.10
2023-04-27T12:21:25.940Z,8.05
2023-04-27T12:23:34.238Z,6.82
2023-04-27T12:25:44.329Z,7.35
2023-04-27T12:27:53.716Z,6.30
2023-04-27T12:30:02.004Z,6.68
2023-04-27T12:32:12.484Z,6.75
2023-04-27T12:34:20.969Z,7.30
2023-04-27T12:36:29.750Z,7.07
2023-04-27T12:38:37.843Z,6.80
2023-04-27T12:40:46.257Z,5.70
2023-04-27T12:42:54.090Z,6.50
2023-04-27T12:45:02.540Z,6.05
2023-04-27T12:47:20.013Z,6.82
2023-04-27T12:49:36.638Z,6.32
2023-04-27T12:51:45.772Z,6.57
2023-04-27T12:53:53.623Z,6.15
2023-04-27T12:56:04.799Z,6.30
2023-04-27T12:58:12.833Z,5.97
2023-04-27T13:00:21.620Z,5.38
2023-04-27T13:02:33.307Z,6.00
2023-04-27T13:04:43.807Z,5.88
2023-04-27T13:06:51.722Z,5.53
2023-04-27T13:08:59.852Z,5.50
2023-04-27T13:11:08.000Z,5.20
2023-04-27T13:13:15.935Z,5.10
2023-04-27T13:15:24.172Z,5.32
2023-04-27T13:17:34.858Z,5.13
2023-04-27T13:19:43.020Z,4.93
2023-04-27T13:21:51.270Z,5.15
2023-04-27T13:24:01.575Z,5.05
2023-04-27T13:26:10.120Z,4.80
2023-04-27T13:28:18.133Z,5.30
2023-04-27T13:30:26.107Z,5.28
2023-04-27T13:32:36.831Z,4.67
2023-04-27T13:34:44.764Z,5.13
2023-04-27T13:36:52.811Z,5.18
2023-04-27T13:39:00.778Z,5.10
2023-04-27T13:41:09.392Z,5.15
2023-04-27T13:43:17.319Z,5.10
2023-04-27T13:45:25.430Z,4.50
2023-04-27T13:47:37.173Z,5.35
2023-04-27T13:49:45.705Z,4.82
2023-04-27T13:51:53.945Z,4.30
2023-04-27T13:54:01.855Z,4.80
2023-04-27T13:56:10.380Z,5.53
2023-04-27T13:58:18.393Z,4.75
2023-04-27T14:00:28.973Z,4.85
2023-04-27T14:02:40.151Z,4.13
2023-04-27T14:04:48.272Z,4.40
2023-04-27T14:06:56.431Z,4.68
2023-04-27T14:09:04.381Z,4.47
2023-04-27T14:11:15.267Z,3.83
2023-04-27T14:13:23.199Z,4.65
2023-04-27T14:15:31.318Z,4.70
2023-04-27T14:17:41.981Z,4.30
2023-04-27T14:19:50.012Z,3.40
2023-04-27T14:22:01.213Z,4.20
2023-04-27T14:24:09.587Z,4.78
2023-04-27T14:26:17.607Z,4.38
2023-04-27T14:28:25.560Z,3.75
2023-04-27T14:30:35.040Z,3.95
2023-04-27T14:32:46.122Z,3.90
2023-04-27T14:34:54.507Z,3.40
2023-04-27T14:37:02.594Z,3.38
2023-04-27T14:39:10.984Z,3.25
2023-04-27T14:41:19.263Z,3.85
2023-04-27T14:43:27.307Z,3.80
2023-04-27T14:45:47.807Z,3.40
2023-04-27T14:48:02.312Z,4.00
2023-04-27T14:50:11.888Z,4.00
2023-04-27T14:52:19.752Z,3.70
2023-04-27T14:54:28.035Z,3.70
2023-04-27T14:56:36.122Z,4.05
2023-04-27T14:58:44.289Z,3.53
2023-04-27T15:00:53.331Z,4.65
2023-04-27T15:03:04.166Z,4.40
2023-04-27T15:05:12.893Z,4.70
2023-04-27T15:07:21.671Z,5.03
2023-04-27T15:09:30.370Z,4.72
2023-04-27T15:11:39.132Z,4.50
2023-04-27T15:13:49.186Z,5.20
2023-04-27T15:15:58.280Z,4.40
2023-04-27T15:18:09.352Z,4.78
2023-04-27T15:20:17.546Z,5.47
2023-04-27T15:22:29.024Z,5.03
2023-04-27T15:24:37.168Z,4.55
2023-04-27T15:26:45.034Z,5.20
2023-04-27T15:28:53.038Z,4.60
2023-04-27T15:31:01.340Z,4.43
2023-04-27T15:33:12.091Z,4.40
2023-04-27T15:35:20.197Z,4.78
2023-04-27T15:37:28.744Z,4.75
2023-04-27T15:39:36.720Z,5.55
2023-04-27T15:41:44.861Z,4.65
2023-04-27T15:43:54.323Z,4.32
2023-04-27T15:46:02.877Z,4.28
2023-04-27T15:48:14.530Z,4.32
2023-04-27T15:50:22.759Z,4.15
2023-04-27T15:52:30.733Z,4.55
2023-04-27T15:54:38.710Z,3.67
2023-04-27T15:56:48.034Z,4.65
2023-04-27T15:58:56.042Z,4.45
2023-04-27T16:01:04.150Z,4.25
2023-04-27T16:03:15.045Z,4.68
2023-04-27T16:05:23.445Z,5.63
2023-04-27T16:07:32.705Z,4.90
2023-04-27T16:09:41.211Z,5.45
2023-04-27T16:11:49.328Z,5.50
2023-04-27T16:13:57.219Z,5.60
2023-04-27T16:16:05.261Z,4.95
2023-04-27T16:18:16.366Z,5.25
2023-04-27T16:20:25.671Z,5.50
2023-04-27T16:22:34.149Z,6.28
2023-04-27T16:24:42.270Z,5.47
2023-04-27T16:26:50.810Z,5.03
2023-04-27T16:28:59.604Z,5.20
2023-04-27T16:31:07.646Z,4.90
2023-04-27T16:33:18.698Z,5.90
2023-04-27T16:35:29.395Z,5.75
2023-04-27T16:37:37.459Z,6.03
2023-04-27T16:39:45.566Z,5.57
2023-04-27T16:41:53.888Z,5.90
2023-04-27T16:44:02.470Z,7.72
2023-04-27T16:46:14.962Z,6.53
2023-04-27T16:48:25.831Z,5.50
2023-04-27T16:50:36.140Z,8.75
2023-04-27T16:52:44.831Z,7.95
2023-04-27T16:54:52.847Z,5.53
2023-04-27T16:57:00.883Z,7.05
2023-04-27T16:59:12.648Z,5.25
2023-04-27T17:01:21.156Z,4.85
2023-04-27T17:03:32.058Z,5.20
2023-04-27T17:05:40.110Z,5.40
2023-04-27T17:07:50.182Z,5.15
2023-04-27T17:09:58.249Z,5.28
2023-04-27T17:12:11.352Z,4.95
2023-04-27T17:14:19.974Z,5.05
2023-04-27T17:16:28.165Z,4.40
2023-04-27T17:18:39.326Z,5.00
2023-04-27T17:20:47.484Z,5.40
2023-04-27T17:22:55.382Z,4.93
2023-04-27T17:25:03.376Z,5.07
2023-04-27T17:27:11.524Z,5.03
2023-04-27T17:29:19.517Z,5.05
2023-04-27T17:31:27.421Z,5.40
2023-04-27T17:33:35.404Z,5.15
2023-04-27T17:35:47.439Z,4.90
2023-04-27T17:37:58.205Z,4.50
2023-04-27T17:40:09.328Z,4.75
2023-04-27T17:42:17.452Z,4.10
2023-04-27T17:44:25.299Z,4.85
2023-04-27T17:46:33.401Z,5.30
2023-04-27T17:48:42.471Z,4.90
2023-04-27T17:50:53.310Z,5.30
2023-04-27T17:53:01.616Z,4.57
2023-04-27T17:55:10.345Z,4.80
2023-04-27T17:57:20.902Z,5.65
2023-04-27T17:59:29.200Z,5.80
2023-04-27T18:01:37.168Z,5.35
2023-04-27T18:03:45.222Z,4.78
2023-04-27T18:05:55.817Z,5.38
2023-04-27T18:08:03.949Z,5.45
2023-04-27T18:10:16.647Z,5.25
2023-04-27T18:12:24.520Z,5.38
2023-04-27T18:14:32.544Z,5.90
2023-04-27T18:16:40.492Z,5.03
2023-04-27T18:18:48.620Z,4.95
2023-04-27T18:20:59.356Z,5.78
2023-04-27T18:23:07.294Z,5.13
2023-04-27T18:25:16.673Z,5.50
2023-04-27T18:27:24.640Z,5.30
2023-04-27T18:29:32.744Z,5.68
2023-04-27T18:31:40.799Z,8.10
2023-04-27T18:33:49.478Z,6.00
2023-04-27T18:35:59.971Z,6.10
2023-04-27T18:38:08.484Z,7.45
2023-04-27T18:40:17.478Z,9.45
2023-04-27T18:42:26.529Z,7.75
2023-04-27T18:44:34.506Z,7.03
2023-04-27T18:46:42.413Z,5.70
2023-04-27T18:48:50.301Z,5.78
2023-04-27T18:51:01.055Z,5.20
2023-04-27T18:53:09.173Z,5.53
2023-04-27T18:55:18.391Z,5.32
2023-04-27T18:57:26.742Z,6.50
2023-04-27T18:59:34.875Z,6.28
2023-04-27T19:01:43.062Z,6.72
2023-04-27T19:03:51.528Z,5.97
2023-04-27T19:06:02.510Z,6.90
2023-04-27T19:08:10.531Z,5.85
2023-04-27T19:10:18.731Z,5.78
2023-04-27T19:12:30.389Z,6.35
2023-04-27T19:14:38.626Z,6.78
2023-04-27T19:16:46.758Z,5.47
2023-04-27T19:18:54.803Z,5.88
2023-04-27T19:21:08.374Z,5.97
2023-04-27T19:23:19.365Z,5.88
2023-04-27T19:25:27.811Z,5.43
2023-04-27T19:27:35.873Z,6.28
2023-04-27T19:29:54.624Z,6.40
2023-04-27T19:32:03.253Z,6.15
2023-04-27T19:34:11.177Z,6.28
2023-04-27T19:36:21.699Z,6.40
2023-04-27T19:38:30.634Z,6.80
2023-04-27T19:40:38.858Z,7.22
2023-04-27T19:42:47.019Z,7.35
2023-04-27T19:44:58.502Z,6.90
2023-04-27T19:47:07.048Z,7.03
2023-04-27T19:49:15.998Z,6.90
2023-04-27T19:51:26.930Z,7.80
2023-04-27T19:53:35.257Z,7.22
2023-04-27T19:55:43.644Z,6.43
2023-04-27T19:57:52.470Z,7.28
2023-04-27T20:00:00.466Z,7.07
2023-04-27T20:02:08.595Z,7.00
2023-04-27T20:04:19.271Z,6.00
2023-04-27T20:06:30.416Z,6.57
2023-04-27T20:08:38.526Z,6.55
2023-04-27T20:10:46.523Z,6.35
2023-04-27T20:12:57.160Z,6.78
2023-04-27T20:15:05.478Z,6.38
2023-04-27T20:17:26.389Z,6.80
2023-04-27T20:19:35.437Z,5.70
2023-04-27T20:21:46.823Z,5.90
2023-04-27T20:23:55.224Z,6.15
2023-04-27T20:26:03.461Z,6.18
2023-04-27T20:28:14.484Z,6.00
2023-04-27T20:30:22.977Z,6.90
2023-04-27T20:32:30.936Z,6.78
2023-04-27T20:34:39.121Z,6.40
2023-04-27T20:37:07.004Z,6.65
2023-04-27T20:39:16.217Z,6.70
2023-04-27T20:41:25.080Z,6.93
2023-04-27T20:43:39.352Z,5.72
2023-04-27T20:45:49.608Z,5.60
2023-04-27T20:47:57.718Z,6.32
2023-04-27T20:50:05.836Z,5.88
2023-04-27T20:52:16.449Z,5.57
2023-04-27T20:54:26.799Z,6.40
2023-04-27T20:56:35.069Z,6.70
2023-04-27T20:58:42.975Z,6.53
2023-04-27T21:00:51.576Z,6.63
2023-04-27T21:03:03.910Z,7.30
2023-04-27T21:05:12.713Z,6.43
2023-04-27T21:07:25.545Z,6.93
2023-04-27T21:09:35.123Z,6.55
2023-04-27T21:11:43.101Z,6.07
2023-04-27T21:13:51.072Z,6.93
2023-04-27T21:15:59.034Z,7.15
2023-04-27T21:18:13.435Z,6.68
2023-04-27T21:20:24.156Z,5.65
2023-04-27T21:22:34.842Z,6.30
2023-04-27T21:24:42.751Z,6.30
2023-04-27T21:26:50.647Z,6.20
2023-04-27T21:28:59.017Z,7.13
2023-04-27T21:31:07.065Z,6.32
2023-04-27T21:33:15.286Z,6.03
2023-04-27T21:35:23.307Z,5.65
2023-04-27T21:37:31.442Z,5.57
2023-04-27T21:39:41.886Z,5.55
2023-04-27T21:41:49.980Z,5.82
2023-04-27T21:43:58.102Z,5.20
2023-04-27T21:46:06.034Z,4.70
2023-04-27T21:48:13.927Z,4.63
2023-04-27T21:50:22.005Z,6.00
2023-04-27T21:52:30.039Z,5.47
2023-04-27T21:54:37.848Z,5.18
2023-04-27T21:56:48.513Z,5.80
2023-04-27T21:59:06.357Z,4.90
2023-04-27T22:01:15.283Z,5.53
2023-04-27T22:03:24.197Z,6.10
2023-04-27T22:05:33.624Z,5.63
2023-04-27T22:07:41.621Z,5.30
2023-04-27T22:09:49.845Z,6.00
2023-04-27T22:12:00.409Z,5.63
2023-04-27T22:14:08.634Z,6.10
2023-04-27T22:16:16.901Z,6.25
2023-04-27T22:18:24.856Z,5.85
2023-04-27T22:20:33.145Z,6.32
2023-04-27T22:22:41.223Z,6.43
2023-04-27T22:24:49.183Z,6.00
2023-04-27T22:26:57.134Z,6.10
2023-04-27T22:29:07.586Z,6.25
2023-04-27T22:31:15.458Z,6.22
2023-04-27T22:33:23.477Z,6.03
2023-04-27T22:35:31.890Z,6.53
2023-04-27T22:37:39.973Z,5.90
2023-04-27T22:39:48.078Z,6.18
2023-04-27T22:41:56.045Z,6.10
2023-04-27T22:44:04.161Z,6.30
2023-04-27T22:46:14.630Z,6.32
2023-04-27T22:48:22.564Z,6.22
2023-04-27T22:50:31.718Z,6.75
2023-04-27T22:52:42.466Z,7.43
2023-04-27T22:54:50.589Z,6.75
2023-04-27T22:56:59.403Z,6.03
2023-04-27T22:59:07.277Z,7.00
2023-04-27T23:01:17.856Z,6.30
2023-04-27T23:03:26.201Z,6.63
2023-04-27T23:05:34.150Z,6.85
2023-04-27T23:07:43.031Z,6.90
2023-04-27T23:09:51.000Z,6.63
2023-04-27T23:11:59.237Z,5.85
2023-04-27T23:14:07.752Z,6.32
2023-04-27T23:16:18.557Z,7.30
2023-04-27T23:18:26.444Z,6.55
2023-04-27T23:20:34.486Z,7.22
2023-04-27T23:22:44.089Z,7.03
2023-04-27T23:24:52.009Z,7.32
2023-04-27T23:27:00.477Z,6.85
2023-04-27T23:29:11.217Z,6.50
2023-04-27T23:31:21.686Z,6.55
2023-04-27T23:33:29.560Z,7.35
2023-04-27T23:35:37.519Z,6.70
2023-04-27T23:37:45.492Z,7.45
2023-04-27T23:39:53.541Z,7.05
2023-04-27T23:42:02.086Z,7.22
2023-04-27T23:44:09.952Z,6.97
2023-04-27T23:46:17.999Z,8.45
2023-04-27T23:48:28.620Z,7.10
2023-04-27T23:50:36.650Z,6.72
2023-04-27T23:52:45.360Z,6.45
2023-04-27T23:54:53.286Z,6.72
2023-04-27T23:57:01.551Z,7.07
2023-04-27T23:59:10.924Z,7.70
